sensor_id;sensor_type;location;lat;lon;timestamp;temperature;humidity
12726;DHT22;6427;49.754;6.106;2024-03-08T00:00:34;4.40;99.90
12726;DHT22;6427;49.754;6.106;2024-03-08T00:03:02;4.40;99.90
12726;DHT22;6427;49.754;6.106;2024-03-08T00:05:30;4.40;99.90
12726;DHT22;6427;49.754;6.106;2024-03-08T00:07:57;4.30;99.90
12726;DHT22;6427;49.754;6.106;2024-03-08T00:10:25;4.30;99.90
12726;DHT22;6427;49.754;6.106;2024-03-08T00:12:52;4.20;99.90
12726;DHT22;6427;49.754;6.106;2024-03-08T00:15:20;4.20;99.90
12726;DHT22;6427;49.754;6.106;2024-03-08T00:17:48;4.20;99.90
12726;DHT22;6427;49.754;6.106;2024-03-08T00:20:16;4.20;99.90
12726;DHT22;6427;49.754;6.106;2024-03-08T00:22:44;4.10;99.90
12726;DHT22;6427;49.754;6.106;2024-03-08T00:25:11;4.10;99.90
12726;DHT22;6427;49.754;6.106;2024-03-08T00:27:40;4.40;99.90
12726;DHT22;6427;49.754;6.106;2024-03-08T00:30:08;4.30;99.90
12726;DHT22;6427;49.754;6.106;2024-03-08T00:32:36;4.30;99.90
12726;DHT22;6427;49.754;6.106;2024-03-08T00:35:03;4.30;99.90
12726;DHT22;6427;49.754;6.106;2024-03-08T00:37:31;4.30;99.90
12726;DHT22;6427;49.754;6.106;2024-03-08T00:39:59;4.80;99.90
12726;DHT22;6427;49.754;6.106;2024-03-08T00:42:27;4.80;99.90
12726;DHT22;6427;49.754;6.106;2024-03-08T00:44:55;5.00;99.90
12726;DHT22;6427;49.754;6.106;2024-03-08T00:47:22;5.10;99.90
12726;DHT22;6427;49.754;6.106;2024-03-08T00:49:51;5.00;99.90
12726;DHT22;6427;49.754;6.106;2024-03-08T00:52:19;4.80;99.90
12726;DHT22;6427;49.754;6.106;2024-03-08T00:54:47;4.70;99.90
12726;DHT22;6427;49.754;6.106;2024-03-08T00:57:15;4.40;99.90
12726;DHT22;6427;49.754;6.106;2024-03-08T00:59:42;4.40;99.90
12726;DHT22;6427;49.754;6.106;2024-03-08T01:02:10;4.30;99.90
12726;DHT22;6427;49.754;6.106;2024-03-08T01:04:38;4.20;99.90
12726;DHT22;6427;49.754;6.106;2024-03-08T01:07:06;4.20;99.90
12726;DHT22;6427;49.754;6.106;2024-03-08T01:09:34;4.10;99.90
12726;DHT22;6427;49.754;6.106;2024-03-08T01:12:01;4.20;99.90
12726;DHT22;6427;49.754;6.106;2024-03-08T01:14:29;4.50;99.90
12726;DHT22;6427;49.754;6.106;2024-03-08T01:16:56;4.40;99.90
12726;DHT22;6427;49.754;6.106;2024-03-08T01:19:24;4.30;99.90
12726;DHT22;6427;49.754;6.106;2024-03-08T01:21:52;4.20;99.90
12726;DHT22;6427;49.754;6.106;2024-03-08T01:24:19;4.50;99.90
12726;DHT22;6427;49.754;6.106;2024-03-08T01:26:47;4.40;99.90
12726;DHT22;6427;49.754;6.106;2024-03-08T01:29:14;4.60;99.90
12726;DHT22;6427;49.754;6.106;2024-03-08T01:31:42;4.40;99.90
12726;DHT22;6427;49.754;6.106;2024-03-08T01:34:10;4.40;99.90
12726;DHT22;6427;49.754;6.106;2024-03-08T01:36:39;4.30;99.90
12726;DHT22;6427;49.754;6.106;2024-03-08T01:39:06;4.30;99.90
12726;DHT22;6427;49.754;6.106;2024-03-08T01:41:34;4.10;99.90
12726;DHT22;6427;49.754;6.106;2024-03-08T01:44:02;4.00;99.90
12726;DHT22;6427;49.754;6.106;2024-03-08T01:46:29;3.90;99.90
12726;DHT22;6427;49.754;6.106;2024-03-08T01:48:57;3.90;99.90
12726;DHT22;6427;49.754;6.106;2024-03-08T01:51:24;3.80;99.90
12726;DHT22;6427;49.754;6.106;2024-03-08T01:53:53;4.10;99.90
12726;DHT22;6427;49.754;6.106;2024-03-08T01:56:21;4.50;99.90
12726;DHT22;6427;49.754;6.106;2024-03-08T01:58:49;4.40;99.90
12726;DHT22;6427;49.754;6.106;2024-03-08T02:01:16;4.30;99.90
12726;DHT22;6427;49.754;6.106;2024-03-08T02:03:44;4.20;99.90
12726;DHT22;6427;49.754;6.106;2024-03-08T02:06:12;4.00;99.90
12726;DHT22;6427;49.754;6.106;2024-03-08T02:08:41;4.00;99.90
12726;DHT22;6427;49.754;6.106;2024-03-08T02:11:08;4.20;99.90
12726;DHT22;6427;49.754;6.106;2024-03-08T02:13:37;4.10;99.90
12726;DHT22;6427;49.754;6.106;2024-03-08T02:16:04;4.10;99.90
12726;DHT22;6427;49.754;6.106;2024-03-08T02:18:32;4.00;99.90
12726;DHT22;6427;49.754;6.106;2024-03-08T02:20:59;4.20;99.90
12726;DHT22;6427;49.754;6.106;2024-03-08T02:23:27;4.10;99.90
12726;DHT22;6427;49.754;6.106;2024-03-08T02:25:56;3.90;99.90
12726;DHT22;6427;49.754;6.106;2024-03-08T02:28:23;3.90;99.90
12726;DHT22;6427;49.754;6.106;2024-03-08T02:30:51;3.80;99.90
12726;DHT22;6427;49.754;6.106;2024-03-08T02:33:18;3.80;99.90
12726;DHT22;6427;49.754;6.106;2024-03-08T02:35:46;3.80;99.90
12726;DHT22;6427;49.754;6.106;2024-03-08T02:38:17;3.70;99.90
12726;DHT22;6427;49.754;6.106;2024-03-08T02:40:48;3.70;99.90
12726;DHT22;6427;49.754;6.106;2024-03-08T02:43:15;3.70;99.90
12726;DHT22;6427;49.754;6.106;2024-03-08T02:45:42;3.70;99.90
12726;DHT22;6427;49.754;6.106;2024-03-08T02:48:10;3.60;99.90
12726;DHT22;6427;49.754;6.106;2024-03-08T02:50:37;3.60;99.90
12726;DHT22;6427;49.754;6.106;2024-03-08T02:53:05;3.60;99.90
12726;DHT22;6427;49.754;6.106;2024-03-08T02:55:32;3.60;99.90
12726;DHT22;6427;49.754;6.106;2024-03-08T02:58:00;3.90;99.90
12726;DHT22;6427;49.754;6.106;2024-03-08T03:00:28;3.90;99.90
12726;DHT22;6427;49.754;6.106;2024-03-08T03:02:55;3.80;99.90
12726;DHT22;6427;49.754;6.106;2024-03-08T03:05:23;3.80;99.90
12726;DHT22;6427;49.754;6.106;2024-03-08T03:07:51;3.70;99.90
12726;DHT22;6427;49.754;6.106;2024-03-08T03:10:19;3.70;99.90
12726;DHT22;6427;49.754;6.106;2024-03-08T03:12:47;3.70;99.90
12726;DHT22;6427;49.754;6.106;2024-03-08T03:15:15;4.00;99.90
12726;DHT22;6427;49.754;6.106;2024-03-08T03:17:48;3.90;99.90
12726;DHT22;6427;49.754;6.106;2024-03-08T03:20:16;3.90;99.90
12726;DHT22;6427;49.754;6.106;2024-03-08T03:22:43;4.20;99.90
12726;DHT22;6427;49.754;6.106;2024-03-08T03:25:11;4.60;99.90
12726;DHT22;6427;49.754;6.106;2024-03-08T03:27:40;4.40;99.90
12726;DHT22;6427;49.754;6.106;2024-03-08T03:30:08;4.40;99.90
12726;DHT22;6427;49.754;6.106;2024-03-08T03:32:48;4.20;99.90
12726;DHT22;6427;49.754;6.106;2024-03-08T03:35:15;4.00;99.90
12726;DHT22;6427;49.754;6.106;2024-03-08T03:37:43;3.90;99.90
12726;DHT22;6427;49.754;6.106;2024-03-08T03:40:11;3.90;99.90
12726;DHT22;6427;49.754;6.106;2024-03-08T03:42:38;3.80;99.90
12726;DHT22;6427;49.754;6.106;2024-03-08T03:45:06;3.70;99.90
12726;DHT22;6427;49.754;6.106;2024-03-08T03:47:34;3.60;99.90
12726;DHT22;6427;49.754;6.106;2024-03-08T03:50:02;3.60;99.90
12726;DHT22;6427;49.754;6.106;2024-03-08T03:52:29;3.60;99.90
12726;DHT22;6427;49.754;6.106;2024-03-08T03:54:57;3.60;99.90
12726;DHT22;6427;49.754;6.106;2024-03-08T03:57:25;3.50;99.90
12726;DHT22;6427;49.754;6.106;2024-03-08T03:59:53;3.80;99.90
12726;DHT22;6427;49.754;6.106;2024-03-08T04:02:20;3.80;99.90
12726;DHT22;6427;49.754;6.106;2024-03-08T04:04:49;3.60;99.90
12726;DHT22;6427;49.754;6.106;2024-03-08T04:07:16;3.60;99.90
12726;DHT22;6427;49.754;6.106;2024-03-08T04:09:44;3.60;99.90
12726;DHT22;6427;49.754;6.106;2024-03-08T04:12:12;3.80;99.90
12726;DHT22;6427;49.754;6.106;2024-03-08T04:14:42;3.80;99.90
12726;DHT22;6427;49.754;6.106;2024-03-08T04:17:10;3.70;99.90
12726;DHT22;6427;49.754;6.106;2024-03-08T04:19:38;3.60;99.90
12726;DHT22;6427;49.754;6.106;2024-03-08T04:22:06;3.50;99.90
12726;DHT22;6427;49.754;6.106;2024-03-08T04:24:33;3.50;99.90
12726;DHT22;6427;49.754;6.106;2024-03-08T04:27:02;3.70;99.90
12726;DHT22;6427;49.754;6.106;2024-03-08T04:29:29;3.70;99.90
12726;DHT22;6427;49.754;6.106;2024-03-08T04:31:57;3.60;99.90
12726;DHT22;6427;49.754;6.106;2024-03-08T04:34:24;3.80;99.90
12726;DHT22;6427;49.754;6.106;2024-03-08T04:36:52;3.70;99.90
12726;DHT22;6427;49.754;6.106;2024-03-08T04:39:20;3.90;99.90
12726;DHT22;6427;49.754;6.106;2024-03-08T04:41:47;3.70;99.90
12726;DHT22;6427;49.754;6.106;2024-03-08T04:44:16;3.70;99.90
12726;DHT22;6427;49.754;6.106;2024-03-08T04:46:44;3.50;99.90
12726;DHT22;6427;49.754;6.106;2024-03-08T04:49:12;3.50;99.90
12726;DHT22;6427;49.754;6.106;2024-03-08T04:51:39;3.40;99.90
12726;DHT22;6427;49.754;6.106;2024-03-08T04:54:07;3.60;99.90
12726;DHT22;6427;49.754;6.106;2024-03-08T04:56:34;3.50;99.90
12726;DHT22;6427;49.754;6.106;2024-03-08T04:59:02;3.40;99.90
12726;DHT22;6427;49.754;6.106;2024-03-08T05:01:30;3.20;99.90
12726;DHT22;6427;49.754;6.106;2024-03-08T05:03:58;3.30;99.90
12726;DHT22;6427;49.754;6.106;2024-03-08T05:06:25;3.20;99.90
12726;DHT22;6427;49.754;6.106;2024-03-08T05:08:53;3.20;99.90
12726;DHT22;6427;49.754;6.106;2024-03-08T05:11:21;3.50;99.90
12726;DHT22;6427;49.754;6.106;2024-03-08T05:13:49;3.30;99.90
12726;DHT22;6427;49.754;6.106;2024-03-08T05:16:17;3.20;99.90
12726;DHT22;6427;49.754;6.106;2024-03-08T05:18:45;3.20;99.90
12726;DHT22;6427;49.754;6.106;2024-03-08T05:21:14;3.40;99.90
12726;DHT22;6427;49.754;6.106;2024-03-08T05:23:42;3.40;99.90
12726;DHT22;6427;49.754;6.106;2024-03-08T05:26:10;3.30;99.90
12726;DHT22;6427;49.754;6.106;2024-03-08T05:28:37;3.30;99.90
12726;DHT22;6427;49.754;6.106;2024-03-08T05:31:05;3.20;99.90
12726;DHT22;6427;49.754;6.106;2024-03-08T05:33:32;3.10;99.90
12726;DHT22;6427;49.754;6.106;2024-03-08T05:36:00;3.40;99.90
12726;DHT22;6427;49.754;6.106;2024-03-08T05:38:28;3.30;99.90
12726;DHT22;6427;49.754;6.106;2024-03-08T05:40:55;3.20;99.90
12726;DHT22;6427;49.754;6.106;2024-03-08T05:43:23;3.20;99.90
12726;DHT22;6427;49.754;6.106;2024-03-08T05:45:51;3.10;99.90
12726;DHT22;6427;49.754;6.106;2024-03-08T05:48:18;3.40;99.90
12726;DHT22;6427;49.754;6.106;2024-03-08T05:50:46;3.30;99.90
12726;DHT22;6427;49.754;6.106;2024-03-08T05:53:14;3.20;99.90
12726;DHT22;6427;49.754;6.106;2024-03-08T05:55:41;3.20;99.90
12726;DHT22;6427;49.754;6.106;2024-03-08T05:58:09;3.10;99.90
12726;DHT22;6427;49.754;6.106;2024-03-08T06:00:37;3.10;99.90
12726;DHT22;6427;49.754;6.106;2024-03-08T06:03:05;3.00;99.90
12726;DHT22;6427;49.754;6.106;2024-03-08T06:05:33;2.90;99.90
12726;DHT22;6427;49.754;6.106;2024-03-08T06:08:00;2.90;99.90
12726;DHT22;6427;49.754;6.106;2024-03-08T06:10:28;2.90;99.90
12726;DHT22;6427;49.754;6.106;2024-03-08T06:12:56;2.90;99.90
12726;DHT22;6427;49.754;6.106;2024-03-08T06:15:23;3.20;99.90
12726;DHT22;6427;49.754;6.106;2024-03-08T06:17:52;3.40;99.90
12726;DHT22;6427;49.754;6.106;2024-03-08T06:20:22;3.40;99.90
12726;DHT22;6427;49.754;6.106;2024-03-08T06:22:49;3.20;99.90
12726;DHT22;6427;49.754;6.106;2024-03-08T06:25:17;3.20;99.90
12726;DHT22;6427;49.754;6.106;2024-03-08T06:27:45;3.10;99.90
12726;DHT22;6427;49.754;6.106;2024-03-08T06:30:12;3.10;99.90
12726;DHT22;6427;49.754;6.106;2024-03-08T06:32:40;3.00;99.90
12726;DHT22;6427;49.754;6.106;2024-03-08T06:35:08;3.30;99.90
12726;DHT22;6427;49.754;6.106;2024-03-08T06:37:35;3.20;99.90
12726;DHT22;6427;49.754;6.106;2024-03-08T06:40:03;3.10;99.90
12726;DHT22;6427;49.754;6.106;2024-03-08T06:42:30;3.30;99.90
12726;DHT22;6427;49.754;6.106;2024-03-08T06:45:01;3.20;99.90
12726;DHT22;6427;49.754;6.106;2024-03-08T06:47:28;3.10;99.90
12726;DHT22;6427;49.754;6.106;2024-03-08T06:49:56;3.00;99.90
12726;DHT22;6427;49.754;6.106;2024-03-08T06:52:23;3.00;99.90
12726;DHT22;6427;49.754;6.106;2024-03-08T06:54:52;2.90;99.90
12726;DHT22;6427;49.754;6.106;2024-03-08T06:57:19;2.90;99.90
12726;DHT22;6427;49.754;6.106;2024-03-08T06:59:50;2.90;99.90
12726;DHT22;6427;49.754;6.106;2024-03-08T07:02:18;3.30;99.90
12726;DHT22;6427;49.754;6.106;2024-03-08T07:04:46;3.30;99.90
12726;DHT22;6427;49.754;6.106;2024-03-08T07:07:15;3.20;99.90
12726;DHT22;6427;49.754;6.106;2024-03-08T07:09:44;3.20;99.90
12726;DHT22;6427;49.754;6.106;2024-03-08T07:12:10;3.20;99.90
12726;DHT22;6427;49.754;6.106;2024-03-08T07:14:38;3.20;99.90
12726;DHT22;6427;49.754;6.106;2024-03-08T07:17:05;3.60;99.90
12726;DHT22;6427;49.754;6.106;2024-03-08T07:19:33;3.60;99.90
12726;DHT22;6427;49.754;6.106;2024-03-08T07:22:00;3.50;99.90
12726;DHT22;6427;49.754;6.106;2024-03-08T07:24:28;3.80;99.90
12726;DHT22;6427;49.754;6.106;2024-03-08T07:27:04;3.80;99.90
12726;DHT22;6427;49.754;6.106;2024-03-08T07:29:32;3.80;99.90
12726;DHT22;6427;49.754;6.106;2024-03-08T07:31:59;3.70;99.90
12726;DHT22;6427;49.754;6.106;2024-03-08T07:34:45;3.70;99.90
12726;DHT22;6427;49.754;6.106;2024-03-08T07:37:12;4.10;99.90
12726;DHT22;6427;49.754;6.106;2024-03-08T07:39:40;4.10;99.90
12726;DHT22;6427;49.754;6.106;2024-03-08T07:42:08;4.10;99.90
12726;DHT22;6427;49.754;6.106;2024-03-08T07:44:36;4.10;99.90
12726;DHT22;6427;49.754;6.106;2024-03-08T07:47:04;4.10;99.90
12726;DHT22;6427;49.754;6.106;2024-03-08T07:49:31;4.20;99.90
12726;DHT22;6427;49.754;6.106;2024-03-08T07:51:59;4.20;99.90
12726;DHT22;6427;49.754;6.106;2024-03-08T07:54:26;4.30;99.90
12726;DHT22;6427;49.754;6.106;2024-03-08T07:56:54;4.30;99.90
12726;DHT22;6427;49.754;6.106;2024-03-08T07:59:22;4.30;99.90
12726;DHT22;6427;49.754;6.106;2024-03-08T08:01:49;4.30;99.90
12726;DHT22;6427;49.754;6.106;2024-03-08T08:04:17;4.70;99.90
12726;DHT22;6427;49.754;6.106;2024-03-08T08:06:44;4.70;99.90
12726;DHT22;6427;49.754;6.106;2024-03-08T08:09:12;4.80;99.90
12726;DHT22;6427;49.754;6.106;2024-03-08T08:11:42;4.80;99.90
12726;DHT22;6427;49.754;6.106;2024-03-08T08:14:10;4.80;99.90
12726;DHT22;6427;49.754;6.106;2024-03-08T08:16:37;4.90;99.90
12726;DHT22;6427;49.754;6.106;2024-03-08T08:19:05;4.90;99.90
12726;DHT22;6427;49.754;6.106;2024-03-08T08:21:35;5.00;99.90
12726;DHT22;6427;49.754;6.106;2024-03-08T08:24:05;5.00;99.90
12726;DHT22;6427;49.754;6.106;2024-03-08T08:26:33;5.10;99.90
12726;DHT22;6427;49.754;6.106;2024-03-08T08:29:01;5.20;99.90
12726;DHT22;6427;49.754;6.106;2024-03-08T08:31:28;5.30;99.90
12726;DHT22;6427;49.754;6.106;2024-03-08T08:33:56;5.30;99.90
12726;DHT22;6427;49.754;6.106;2024-03-08T08:36:24;5.40;99.90
12726;DHT22;6427;49.754;6.106;2024-03-08T08:38:51;5.50;99.90
12726;DHT22;6427;49.754;6.106;2024-03-08T08:41:19;5.60;99.90
12726;DHT22;6427;49.754;6.106;2024-03-08T08:43:46;5.60;99.90
12726;DHT22;6427;49.754;6.106;2024-03-08T08:46:16;5.70;99.90
12726;DHT22;6427;49.754;6.106;2024-03-08T08:48:41;5.80;99.90
12726;DHT22;6427;49.754;6.106;2024-03-08T08:51:12;5.90;99.90
12726;DHT22;6427;49.754;6.106;2024-03-08T08:53:39;6.00;99.90
12726;DHT22;6427;49.754;6.106;2024-03-08T08:56:11;6.10;99.90
12726;DHT22;6427;49.754;6.106;2024-03-08T08:58:39;6.10;99.90
12726;DHT22;6427;49.754;6.106;2024-03-08T09:01:06;6.20;99.90
12726;DHT22;6427;49.754;6.106;2024-03-08T09:03:33;6.30;99.90
12726;DHT22;6427;49.754;6.106;2024-03-08T09:06:01;6.40;99.90
12726;DHT22;6427;49.754;6.106;2024-03-08T09:08:29;6.60;99.90
12726;DHT22;6427;49.754;6.106;2024-03-08T09:10:57;6.60;99.90
12726;DHT22;6427;49.754;6.106;2024-03-08T09:13:25;6.70;99.90
12726;DHT22;6427;49.754;6.106;2024-03-08T09:15:52;6.80;99.90
12726;DHT22;6427;49.754;6.106;2024-03-08T09:18:20;7.30;99.90
12726;DHT22;6427;49.754;6.106;2024-03-08T09:20:48;7.30;99.90
12726;DHT22;6427;49.754;6.106;2024-03-08T09:23:20;7.80;99.90
12726;DHT22;6427;49.754;6.106;2024-03-08T09:25:45;7.70;99.90
12726;DHT22;6427;49.754;6.106;2024-03-08T09:28:13;7.70;99.90
12726;DHT22;6427;49.754;6.106;2024-03-08T09:30:41;7.70;99.90
12726;DHT22;6427;49.754;6.106;2024-03-08T09:33:09;8.10;99.90
12726;DHT22;6427;49.754;6.106;2024-03-08T09:35:36;8.10;99.90
12726;DHT22;6427;49.754;6.106;2024-03-08T09:38:05;8.00;99.60
12726;DHT22;6427;49.754;6.106;2024-03-08T09:40:33;8.00;99.70
12726;DHT22;6427;49.754;6.106;2024-03-08T09:43:01;8.00;99.70
12726;DHT22;6427;49.754;6.106;2024-03-08T09:45:28;8.00;99.50
12726;DHT22;6427;49.754;6.106;2024-03-08T09:47:56;8.50;98.90
12726;DHT22;6427;49.754;6.106;2024-03-08T09:50:23;8.50;97.90
12726;DHT22;6427;49.754;6.106;2024-03-08T09:52:51;8.40;97.80
12726;DHT22;6427;49.754;6.106;2024-03-08T09:55:19;8.70;97.00
12726;DHT22;6427;49.754;6.106;2024-03-08T09:57:46;9.00;96.20
12726;DHT22;6427;49.754;6.106;2024-03-08T10:00:32;8.80;96.10
12726;DHT22;6427;49.754;6.106;2024-03-08T10:03:03;8.70;96.40
12726;DHT22;6427;49.754;6.106;2024-03-08T10:05:30;8.70;96.60
12726;DHT22;6427;49.754;6.106;2024-03-08T10:07:58;8.70;96.40
12726;DHT22;6427;49.754;6.106;2024-03-08T10:10:26;8.70;96.00
12726;DHT22;6427;49.754;6.106;2024-03-08T10:12:54;8.70;96.10
12726;DHT22;6427;49.754;6.106;2024-03-08T10:15:22;8.80;95.90
12726;DHT22;6427;49.754;6.106;2024-03-08T10:17:50;8.80;95.90
12726;DHT22;6427;49.754;6.106;2024-03-08T10:20:17;8.80;95.90
12726;DHT22;6427;49.754;6.106;2024-03-08T10:22:45;8.80;95.90
12726;DHT22;6427;49.754;6.106;2024-03-08T10:25:13;8.90;95.90
12726;DHT22;6427;49.754;6.106;2024-03-08T10:27:40;9.00;95.70
12726;DHT22;6427;49.754;6.106;2024-03-08T10:30:14;9.40;95.30
12726;DHT22;6427;49.754;6.106;2024-03-08T10:32:41;9.40;94.70
12726;DHT22;6427;49.754;6.106;2024-03-08T10:35:09;9.40;94.70
12726;DHT22;6427;49.754;6.106;2024-03-08T10:37:44;9.40;94.90
12726;DHT22;6427;49.754;6.106;2024-03-08T10:40:05;9.50;94.60
12726;DHT22;6427;49.754;6.106;2024-03-08T10:42:40;9.50;94.60
12726;DHT22;6427;49.754;6.106;2024-03-08T10:45:08;9.50;94.60
12726;DHT22;6427;49.754;6.106;2024-03-08T10:47:34;9.60;94.70
12726;DHT22;6427;49.754;6.106;2024-03-08T10:50:18;9.70;94.80
12726;DHT22;6427;49.754;6.106;2024-03-08T10:52:44;9.70;94.30
12726;DHT22;6427;49.754;6.106;2024-03-08T10:55:11;9.70;94.10
12726;DHT22;6427;49.754;6.106;2024-03-08T10:57:39;9.70;93.90
12726;DHT22;6427;49.754;6.106;2024-03-08T11:00:07;9.80;93.80
12726;DHT22;6427;49.754;6.106;2024-03-08T11:02:34;9.80;94.10
12726;DHT22;6427;49.754;6.106;2024-03-08T11:05:02;9.90;94.20
12726;DHT22;6427;49.754;6.106;2024-03-08T11:07:35;10.00;94.00
12726;DHT22;6427;49.754;6.106;2024-03-08T11:10:03;10.10;93.90
12726;DHT22;6427;49.754;6.106;2024-03-08T11:12:40;10.20;93.40
12726;DHT22;6427;49.754;6.106;2024-03-08T11:15:02;10.20;93.40
12726;DHT22;6427;49.754;6.106;2024-03-08T11:19:59;10.30;93.20
12726;DHT22;6427;49.754;6.106;2024-03-08T11:22:27;10.30;92.80
12726;DHT22;6427;49.754;6.106;2024-03-08T11:24:58;10.30;92.70
12726;DHT22;6427;49.754;6.106;2024-03-08T11:27:28;10.50;92.90
12726;DHT22;6427;49.754;6.106;2024-03-08T11:29:59;10.40;92.90
12726;DHT22;6427;49.754;6.106;2024-03-08T11:32:30;10.60;92.30
12726;DHT22;6427;49.754;6.106;2024-03-08T11:34:57;10.60;92.30
12726;DHT22;6427;49.754;6.106;2024-03-08T11:37:25;10.70;92.50
12726;DHT22;6427;49.754;6.106;2024-03-08T11:39:54;10.90;92.40
12726;DHT22;6427;49.754;6.106;2024-03-08T11:42:20;10.90;92.10
12726;DHT22;6427;49.754;6.106;2024-03-08T11:44:48;11.00;91.60
12726;DHT22;6427;49.754;6.106;2024-03-08T11:47:15;11.00;91.60
12726;DHT22;6427;49.754;6.106;2024-03-08T11:49:43;11.10;91.30
12726;DHT22;6427;49.754;6.106;2024-03-08T11:52:13;11.20;91.30
12726;DHT22;6427;49.754;6.106;2024-03-08T11:54:41;11.20;90.20
12726;DHT22;6427;49.754;6.106;2024-03-08T11:57:10;11.20;90.20
12726;DHT22;6427;49.754;6.106;2024-03-08T11:59:37;11.20;90.20
12726;DHT22;6427;49.754;6.106;2024-03-08T12:02:05;11.30;90.20
12726;DHT22;6427;49.754;6.106;2024-03-08T12:04:32;11.70;90.00
12726;DHT22;6427;49.754;6.106;2024-03-08T12:07:01;11.70;90.00
12726;DHT22;6427;49.754;6.106;2024-03-08T12:09:29;11.70;89.30
12726;DHT22;6427;49.754;6.106;2024-03-08T12:11:58;11.70;89.30
12726;DHT22;6427;49.754;6.106;2024-03-08T12:14:24;11.70;89.10
12726;DHT22;6427;49.754;6.106;2024-03-08T12:16:53;12.00;88.00
12726;DHT22;6427;49.754;6.106;2024-03-08T12:19:21;12.00;87.30
12726;DHT22;6427;49.754;6.106;2024-03-08T12:21:49;11.90;87.20
12726;DHT22;6427;49.754;6.106;2024-03-08T12:24:17;12.20;86.50
12726;DHT22;6427;49.754;6.106;2024-03-08T12:26:47;12.20;86.50
12726;DHT22;6427;49.754;6.106;2024-03-08T12:29:15;12.20;86.40
12726;DHT22;6427;49.754;6.106;2024-03-08T12:31:42;12.20;86.40
12726;DHT22;6427;49.754;6.106;2024-03-08T12:34:10;12.20;86.30
12726;DHT22;6427;49.754;6.106;2024-03-08T12:36:38;12.20;86.40
12726;DHT22;6427;49.754;6.106;2024-03-08T12:39:05;12.10;86.30
12726;DHT22;6427;49.754;6.106;2024-03-08T12:41:38;12.10;86.10
12726;DHT22;6427;49.754;6.106;2024-03-08T12:44:00;12.10;86.10
12726;DHT22;6427;49.754;6.106;2024-03-08T12:46:28;12.10;85.70
12726;DHT22;6427;49.754;6.106;2024-03-08T12:48:56;12.10;85.40
12726;DHT22;6427;49.754;6.106;2024-03-08T12:51:23;12.10;85.30
12726;DHT22;6427;49.754;6.106;2024-03-08T12:53:51;12.10;85.60
12726;DHT22;6427;49.754;6.106;2024-03-08T12:56:34;12.10;85.70
12726;DHT22;6427;49.754;6.106;2024-03-08T12:59:01;12.10;84.80
12726;DHT22;6427;49.754;6.106;2024-03-08T13:01:28;12.50;83.50
12726;DHT22;6427;49.754;6.106;2024-03-08T13:03:56;12.50;83.10
12726;DHT22;6427;49.754;6.106;2024-03-08T13:06:24;12.40;83.20
12726;DHT22;6427;49.754;6.106;2024-03-08T13:08:52;12.80;83.10
12726;DHT22;6427;49.754;6.106;2024-03-08T13:11:20;12.70;83.00
12726;DHT22;6427;49.754;6.106;2024-03-08T13:13:47;12.70;83.10
12726;DHT22;6427;49.754;6.106;2024-03-08T13:16:15;12.70;83.20
12726;DHT22;6427;49.754;6.106;2024-03-08T13:18:43;12.60;83.10
12726;DHT22;6427;49.754;6.106;2024-03-08T13:21:11;12.60;83.00
12726;DHT22;6427;49.754;6.106;2024-03-08T13:23:40;12.60;82.80
12726;DHT22;6427;49.754;6.106;2024-03-08T13:26:13;12.80;82.10
12726;DHT22;6427;49.754;6.106;2024-03-08T13:28:48;12.70;81.70
12726;DHT22;6427;49.754;6.106;2024-03-08T13:31:21;12.70;81.90
12726;DHT22;6427;49.754;6.106;2024-03-08T13:33:49;12.60;81.80
12726;DHT22;6427;49.754;6.106;2024-03-08T13:36:16;12.60;81.70
12726;DHT22;6427;49.754;6.106;2024-03-08T13:38:49;12.80;81.90
12726;DHT22;6427;49.754;6.106;2024-03-08T13:41:16;12.80;81.40
12726;DHT22;6427;49.754;6.106;2024-03-08T13:43:45;12.80;81.90
12726;DHT22;6427;49.754;6.106;2024-03-08T13:46:11;12.90;82.70
12726;DHT22;6427;49.754;6.106;2024-03-08T13:48:38;12.90;82.50
12726;DHT22;6427;49.754;6.106;2024-03-08T13:51:06;12.90;82.10
12726;DHT22;6427;49.754;6.106;2024-03-08T13:53:34;13.20;81.00
12726;DHT22;6427;49.754;6.106;2024-03-08T13:56:04;13.20;80.60
12726;DHT22;6427;49.754;6.106;2024-03-08T13:58:32;13.10;80.50
12726;DHT22;6427;49.754;6.106;2024-03-08T14:01:00;13.40;79.60
12726;DHT22;6427;49.754;6.106;2024-03-08T14:03:27;13.30;79.30
12726;DHT22;6427;49.754;6.106;2024-03-08T14:05:55;13.30;79.00
12726;DHT22;6427;49.754;6.106;2024-03-08T14:08:23;13.70;78.30
12726;DHT22;6427;49.754;6.106;2024-03-08T14:10:51;13.60;78.20
12726;DHT22;6427;49.754;6.106;2024-03-08T14:13:18;13.60;77.60
12726;DHT22;6427;49.754;6.106;2024-03-08T14:15:46;13.50;77.10
12726;DHT22;6427;49.754;6.106;2024-03-08T14:18:14;13.50;77.50
12726;DHT22;6427;49.754;6.106;2024-03-08T14:20:41;13.50;78.20
12726;DHT22;6427;49.754;6.106;2024-03-08T14:23:09;13.50;77.90
12726;DHT22;6427;49.754;6.106;2024-03-08T14:25:36;13.50;78.10
12726;DHT22;6427;49.754;6.106;2024-03-08T14:28:04;13.50;78.30
12726;DHT22;6427;49.754;6.106;2024-03-08T14:30:32;13.50;78.40
12726;DHT22;6427;49.754;6.106;2024-03-08T14:32:59;13.80;77.20
12726;DHT22;6427;49.754;6.106;2024-03-08T14:35:27;13.60;76.80
12726;DHT22;6427;49.754;6.106;2024-03-08T14:37:55;13.30;77.40
12726;DHT22;6427;49.754;6.106;2024-03-08T14:40:23;13.30;77.30
12726;DHT22;6427;49.754;6.106;2024-03-08T14:42:51;13.20;77.40
12726;DHT22;6427;49.754;6.106;2024-03-08T14:45:18;13.10;78.00
12726;DHT22;6427;49.754;6.106;2024-03-08T14:47:49;13.10;78.10
12726;DHT22;6427;49.754;6.106;2024-03-08T14:50:19;13.40;78.50
12726;DHT22;6427;49.754;6.106;2024-03-08T14:52:47;13.40;78.50
12726;DHT22;6427;49.754;6.106;2024-03-08T14:55:19;13.60;77.20
12726;DHT22;6427;49.754;6.106;2024-03-08T14:57:43;13.50;77.10
12726;DHT22;6427;49.754;6.106;2024-03-08T15:00:11;13.40;77.10
12726;DHT22;6427;49.754;6.106;2024-03-08T15:02:39;13.30;77.20
12726;DHT22;6427;49.754;6.106;2024-03-08T15:05:06;13.20;77.60
12726;DHT22;6427;49.754;6.106;2024-03-08T15:07:34;13.20;78.10
12726;DHT22;6427;49.754;6.106;2024-03-08T15:10:02;13.10;78.30
12726;DHT22;6427;49.754;6.106;2024-03-08T15:12:30;13.40;78.20
12726;DHT22;6427;49.754;6.106;2024-03-08T15:14:58;13.40;78.20
12726;DHT22;6427;49.754;6.106;2024-03-08T15:17:25;13.30;77.80
12726;DHT22;6427;49.754;6.106;2024-03-08T15:19:53;13.30;77.60
12726;DHT22;6427;49.754;6.106;2024-03-08T15:22:21;13.30;78.70
12726;DHT22;6427;49.754;6.106;2024-03-08T15:24:48;13.30;78.60
12726;DHT22;6427;49.754;6.106;2024-03-08T15:27:16;13.30;77.70
12726;DHT22;6427;49.754;6.106;2024-03-08T15:29:44;13.20;77.70
12726;DHT22;6427;49.754;6.106;2024-03-08T15:32:12;13.20;77.70
12726;DHT22;6427;49.754;6.106;2024-03-08T15:34:42;13.20;77.80
12726;DHT22;6427;49.754;6.106;2024-03-08T15:37:07;13.50;77.00
12726;DHT22;6427;49.754;6.106;2024-03-08T15:39:35;13.60;76.90
12726;DHT22;6427;49.754;6.106;2024-03-08T15:42:03;13.50;76.80
12726;DHT22;6427;49.754;6.106;2024-03-08T15:44:31;13.70;76.30
12726;DHT22;6427;49.754;6.106;2024-03-08T15:47:00;13.60;76.00
12726;DHT22;6427;49.754;6.106;2024-03-08T15:49:28;13.50;76.30
12726;DHT22;6427;49.754;6.106;2024-03-08T15:51:56;13.50;76.30
12726;DHT22;6427;49.754;6.106;2024-03-08T15:54:24;13.70;75.60
12726;DHT22;6427;49.754;6.106;2024-03-08T15:56:52;13.70;75.60
12726;DHT22;6427;49.754;6.106;2024-03-08T15:59:19;13.60;75.00
12726;DHT22;6427;49.754;6.106;2024-03-08T16:01:47;13.60;75.20
12726;DHT22;6427;49.754;6.106;2024-03-08T16:04:14;13.50;75.80